Terminal Aerodrome Forecast
Issued by NWS Bismarck, ND

Home | Current Version | Previous Version | Graphics & Text | Print | Product List | Glossary On
Versions: 1 2 3 4 5 6 7 8 9 10 11 12 13 14
000
FTUS43 KBIS 271700
TAFISN
TAF
KISN 271736Z 2718/2818 18006KT P6SM SKC
     FM280100 15005KT P6SM SKC
     FM280800 24003KT P6SM VCFG SKC
     FM281500 23007KT P6SM SKC=

USA.gov is the U.S. government's official web portal to all federal, state and local government web resources and services.